Time;durP1;ratioP1;P1;durP2;ratioP2;P2;SDS_P1;SDS_P2;PMS_P1;PMS_P2;Temp;Humidity;BMP_temperature;BMP_pressure;BME280_temperature;BME280_humidity;BME280_pressure;Samples;Min_cycle;Max_cycle;Signal;HPM_P1;HPM_P2
2023/12/09 00:01:46;;;;;;;0.40;0.40;;;0.40;99.90;;;;;;5025662;28;20449;-87
2023/12/09 00:04:11;;;;;;;0.40;0.40;;;0.40;99.90;;;;;;5032609;28;20211;-87
2023/12/09 00:06:37;;;;;;;0.40;0.40;;;0.40;99.90;;;;;;5006380;28;20211;-87
2023/12/09 00:09:03;;;;;;;0.40;0.40;;;0.40;99.90;;;;;;5025045;28;20791;-86
2023/12/09 00:11:29;;;;;;;0.47;0.47;;;0.40;99.90;;;;;;5009145;28;20195;-86
2023/12/09 00:13:54;;;;;;;0.40;0.40;;;0.40;99.90;;;;;;5026297;28;20480;-87
2023/12/09 00:16:20;;;;;;;0.47;0.47;;;0.40;99.90;;;;;;5005744;28;20187;-87
2023/12/09 00:18:46;;;;;;;0.50;0.50;;;0.40;99.90;;;;;;5025362;28;20231;-85
2023/12/09 00:21:11;;;;;;;0.50;0.50;;;0.40;99.90;;;;;;5027256;28;20706;-87
2023/12/09 00:23:37;;;;;;;0.40;0.40;;;0.40;99.90;;;;;;5026121;28;20603;-86
2023/12/09 00:26:03;;;;;;;0.30;0.30;;;0.40;99.90;;;;;;5008751;28;20278;-87
2023/12/09 00:28:28;;;;;;;0.50;0.50;;;0.40;99.90;;;;;;5018238;28;20316;-86
2023/12/09 00:30:54;;;;;;;0.40;0.40;;;0.40;99.90;;;;;;5024548;28;20540;-86
2023/12/09 00:33:20;;;;;;;0.40;0.40;;;0.40;99.90;;;;;;5012861;28;20222;-86
2023/12/09 00:36:06;;;;;;;0.40;0.40;;;0.50;99.90;;;;;;5027158;28;20266;-86
2023/12/09 00:38:41;;;;;;;0.40;0.40;;;0.40;99.90;;;;;;5025178;28;20963;-87
2023/12/09 00:41:06;;;;;;;0.30;0.30;;;0.40;99.90;;;;;;5008919;28;20953;-86
2023/12/09 00:43:32;;;;;;;0.50;0.50;;;0.40;99.90;;;;;;5019850;28;20492;-86
2023/12/09 00:45:58;;;;;;;0.40;0.40;;;0.40;99.90;;;;;;5017338;28;20209;-87
2023/12/09 00:48:41;;;;;;;0.37;0.37;;;0.40;99.90;;;;;;5016296;28;20330;-87
2023/12/09 00:51:09;;;;;;;0.40;0.40;;;0.40;99.90;;;;;;5010698;28;20223;-87
2023/12/09 00:53:35;;;;;;;0.40;0.40;;;0.40;99.90;;;;;;5021629;28;20449;-87
2023/12/09 00:56:01;;;;;;;0.33;0.33;;;0.40;99.90;;;;;;5026677;28;20446;-87
2023/12/09 00:58:26;;;;;;;0.50;0.50;;;0.50;99.90;;;;;;5024178;28;20848;-86
2023/12/09 01:00:52;;;;;;;0.40;0.40;;;0.50;99.90;;;;;;5021881;28;20183;-87
2023/12/09 01:03:18;;;;;;;0.30;0.30;;;0.50;99.90;;;;;;5026143;28;20183;-86
2023/12/09 01:05:44;;;;;;;0.40;0.40;;;0.50;99.90;;;;;;5008389;28;20448;-86
2023/12/09 01:08:09;;;;;;;0.50;0.50;;;0.50;99.90;;;;;;5010092;28;20319;-86
2023/12/09 01:10:35;;;;;;;0.50;0.50;;;0.50;99.90;;;;;;5020737;28;20302;-85
2023/12/09 01:13:00;;;;;;;0.40;0.40;;;0.50;99.90;;;;;;5027034;28;20188;-87
2023/12/09 01:15:26;;;;;;;0.40;0.40;;;0.50;99.90;;;;;;5020708;28;20249;-86
2023/12/09 01:17:51;;;;;;;0.40;0.40;;;0.50;99.90;;;;;;5024744;28;20852;-86
2023/12/09 01:20:18;;;;;;;0.30;0.30;;;0.50;99.90;;;;;;5026656;28;20314;-86
2023/12/09 01:22:43;;;;;;;0.40;0.40;;;0.50;99.90;;;;;;5023241;28;20233;-86
2023/12/09 01:25:09;;;;;;;0.47;0.47;;;0.50;99.90;;;;;;5012194;28;20438;-86
2023/12/09 01:27:35;;;;;;;0.40;0.40;;;0.50;99.90;;;;;;5028348;28;20195;-86
2023/12/09 01:30:01;;;;;;;0.33;0.33;;;0.50;99.90;;;;;;5019374;28;20675;-86
2023/12/09 01:32:27;;;;;;;0.33;0.33;;;0.50;99.90;;;;;;5008651;28;20179;-86
2023/12/09 01:34:52;;;;;;;0.50;0.50;;;0.50;99.90;;;;;;5026297;28;20279;-86
2023/12/09 01:37:18;;;;;;;0.40;0.40;;;0.50;99.90;;;;;;5032220;28;20805;-86
2023/12/09 01:39:49;;;;;;;0.40;0.40;;;0.50;99.90;;;;;;5029537;28;20652;-86
2023/12/09 01:42:15;;;;;;;0.33;0.33;;;0.50;99.90;;;;;;5022056;28;20187;-86
2023/12/09 01:44:40;;;;;;;0.40;0.40;;;0.50;99.90;;;;;;5029583;28;20438;-86
2023/12/09 01:47:06;;;;;;;0.50;0.50;;;0.50;99.90;;;;;;5029093;28;20208;-86
2023/12/09 01:49:33;;;;;;;0.40;0.40;;;0.50;99.90;;;;;;5030214;28;20223;-86
2023/12/09 01:52:00;;;;;;;0.50;0.50;;;0.50;99.90;;;;;;5026445;28;20438;-86
2023/12/09 01:54:26;;;;;;;0.50;0.50;;;0.50;99.90;;;;;;5021347;28;20492;-87
2023/12/09 01:56:52;;;;;;;0.40;0.40;;;0.50;99.90;;;;;;5012874;28;20450;-86
2023/12/09 01:59:18;;;;;;;0.30;0.30;;;0.60;99.90;;;;;;5011614;28;21171;-87
2023/12/09 02:01:44;;;;;;;0.40;0.40;;;0.50;99.90;;;;;;5011747;28;20453;-87
2023/12/09 02:04:10;;;;;;;0.40;0.40;;;0.60;99.90;;;;;;5009913;28;20455;-87
2023/12/09 02:06:36;;;;;;;0.40;0.40;;;0.60;99.90;;;;;;5011815;28;20976;-86
2023/12/09 02:09:02;;;;;;;0.40;0.40;;;0.60;99.90;;;;;;5019756;28;20904;-88
2023/12/09 02:11:56;;;;;;;0.30;0.30;;;0.60;99.90;;;;;;5023755;28;20203;-86
2023/12/09 02:14:32;;;;;;;0.30;0.30;;;0.50;99.90;;;;;;5023623;28;20564;-86
2023/12/09 02:17:10;;;;;;;0.37;0.37;;;0.60;99.90;;;;;;5026334;28;20473;-87
2023/12/09 02:19:36;;;;;;;0.40;0.40;;;0.60;99.90;;;;;;5004726;28;20501;-87
2023/12/09 02:22:05;;;;;;;0.30;0.30;;;0.60;99.90;;;;;;5029034;28;20441;-86
2023/12/09 02:24:31;;;;;;;0.40;0.40;;;0.60;99.90;;;;;;5030039;28;20246;-87
2023/12/09 02:27:15;;;;;;;0.40;0.40;;;0.60;99.90;;;;;;5021204;28;20673;-85
2023/12/09 02:30:20;;;;;;;0.43;0.43;;;0.60;99.90;;;;;;5010000;28;20444;-86
2023/12/09 02:32:48;;;;;;;0.40;0.40;;;0.60;99.90;;;;;;5031050;28;20438;-86
2023/12/09 02:35:15;;;;;;;0.40;0.40;;;0.60;99.90;;;;;;4999463;28;20533;-86
2023/12/09 02:37:42;;;;;;;0.40;0.40;;;0.60;99.90;;;;;;5011193;28;20379;-86
2023/12/09 02:40:09;;;;;;;0.40;0.40;;;0.60;99.90;;;;;;5010024;28;20358;-86
2023/12/09 02:42:38;;;;;;;0.40;0.40;;;0.60;99.90;;;;;;5026337;28;20795;-86
2023/12/09 02:45:06;;;;;;;0.40;0.40;;;0.70;99.90;;;;;;5025951;28;20282;-86
2023/12/09 02:47:31;;;;;;;0.30;0.30;;;0.70;99.90;;;;;;5011929;28;20850;-86
2023/12/09 02:49:57;;;;;;;0.50;0.50;;;0.70;99.90;;;;;;5026420;28;20476;-86
2023/12/09 02:52:22;;;;;;;0.33;0.33;;;0.70;99.90;;;;;;5026174;28;20187;-86
2023/12/09 02:54:48;;;;;;;0.50;0.50;;;0.80;99.90;;;;;;5024754;28;20197;-86
2023/12/09 02:57:14;;;;;;;0.40;0.40;;;0.70;99.90;;;;;;5021086;28;20052;-86
2023/12/09 02:59:40;;;;;;;0.40;0.40;;;0.80;99.90;;;;;;5007565;28;20198;-85
2023/12/09 03:02:05;;;;;;;0.20;0.20;;;0.80;99.90;;;;;;5030069;28;20234;-87
2023/12/09 03:04:32;;;;;;;0.37;0.37;;;0.80;99.90;;;;;;5006738;28;20994;-87
2023/12/09 03:06:57;;;;;;;0.30;0.30;;;0.80;99.90;;;;;;5022990;28;20514;-86
2023/12/09 03:09:23;;;;;;;0.40;0.40;;;0.80;99.90;;;;;;5028051;28;20532;-88
2023/12/09 03:11:48;;;;;;;0.50;0.50;;;0.80;99.90;;;;;;5028279;28;20242;-88
2023/12/09 03:14:14;;;;;;;0.40;0.40;;;0.80;99.90;;;;;;5020616;28;20192;-87
2023/12/09 03:16:39;;;;;;;0.47;0.47;;;0.80;99.90;;;;;;5024893;28;20621;-88
2023/12/09 03:19:05;;;;;;;0.30;0.30;;;0.80;99.90;;;;;;5028708;28;20254;-87
2023/12/09 03:21:31;;;;;;;0.30;0.30;;;0.80;99.90;;;;;;5028877;28;20220;-87
2023/12/09 03:23:56;;;;;;;0.40;0.40;;;0.80;99.90;;;;;;5024448;28;20192;-87
2023/12/09 03:26:24;;;;;;;0.40;0.40;;;0.80;99.90;;;;;;5029191;28;20195;-87
2023/12/09 03:28:49;;;;;;;0.40;0.40;;;0.80;99.90;;;;;;5026481;28;20215;-88
2023/12/09 03:31:15;;;;;;;0.40;0.40;;;0.80;99.90;;;;;;5027729;28;20480;-87
2023/12/09 03:33:41;;;;;;;0.40;0.40;;;0.80;99.90;;;;;;5028981;28;20222;-88
2023/12/09 03:36:08;;;;;;;0.30;0.30;;;0.90;99.90;;;;;;5028427;28;20486;-87
2023/12/09 03:38:34;;;;;;;0.30;0.30;;;0.90;99.90;;;;;;5020549;28;21017;-87
2023/12/09 03:41:01;;;;;;;0.40;0.40;;;0.90;99.90;;;;;;5027126;28;20537;-86
2023/12/09 03:43:27;;;;;;;0.33;0.33;;;0.80;99.90;;;;;;5006859;28;20188;-87
2023/12/09 03:45:52;;;;;;;0.40;0.40;;;0.80;99.90;;;;;;5021210;28;20450;-87
2023/12/09 03:48:18;;;;;;;0.30;0.30;;;0.80;99.90;;;;;;5026462;28;20183;-88
2023/12/09 03:50:43;;;;;;;0.30;0.30;;;0.80;99.90;;;;;;5027292;28;20206;-88
2023/12/09 03:53:09;;;;;;;0.40;0.40;;;0.80;99.90;;;;;;5022422;28;20196;-87
2023/12/09 03:55:35;;;;;;;0.37;0.37;;;0.90;99.90;;;;;;5030231;28;20192;-87
2023/12/09 03:58:00;;;;;;;0.30;0.30;;;0.90;99.90;;;;;;5027637;28;20271;-88
2023/12/09 04:00:26;;;;;;;0.40;0.40;;;0.90;99.90;;;;;;5009957;28;20953;-88
2023/12/09 04:02:51;;;;;;;0.40;0.40;;;0.90;99.90;;;;;;5027143;28;20195;-88
2023/12/09 04:05:17;;;;;;;0.40;0.40;;;0.90;99.90;;;;;;5021267;28;20219;-87
2023/12/09 04:07:43;;;;;;;0.40;0.40;;;0.90;99.90;;;;;;5026981;28;20192;-88
2023/12/09 04:10:11;;;;;;;0.40;0.40;;;1.00;99.90;;;;;;5027526;28;20487;-87
2023/12/09 04:12:37;;;;;;;0.50;0.50;;;1.00;99.90;;;;;;5008077;28;20279;-88
2023/12/09 04:15:03;;;;;;;0.40;0.40;;;1.00;99.90;;;;;;5002678;28;20885;-87
2023/12/09 04:17:29;;;;;;;0.30;0.30;;;1.00;99.90;;;;;;5002330;28;20273;-87
2023/12/09 04:19:54;;;;;;;0.50;0.50;;;1.00;99.90;;;;;;5004614;28;20617;-86
2023/12/09 04:22:20;;;;;;;0.40;0.40;;;1.10;99.90;;;;;;5023687;28;20259;-87
2023/12/09 04:24:45;;;;;;;0.30;0.30;;;1.00;99.90;;;;;;5027631;28;20233;-88
2023/12/09 04:27:12;;;;;;;0.50;0.50;;;1.00;99.90;;;;;;5025527;28;20707;-87
2023/12/09 04:29:38;;;;;;;0.40;0.40;;;1.00;99.90;;;;;;5018429;28;20215;-87
2023/12/09 04:32:04;;;;;;;0.50;0.50;;;1.10;99.90;;;;;;5007823;28;20442;-87
2023/12/09 04:34:40;;;;;;;0.40;0.40;;;1.00;99.90;;;;;;5024891;28;20957;-87
2023/12/09 04:37:09;;;;;;;0.30;0.30;;;1.00;99.90;;;;;;5020955;28;20886;-88
2023/12/09 04:39:35;;;;;;;0.40;0.40;;;1.00;99.90;;;;;;5023598;28;20931;-87
2023/12/09 04:42:00;;;;;;;0.40;0.40;;;1.00;99.90;;;;;;5007935;28;20442;-87
2023/12/09 04:44:34;;;;;;;0.40;0.40;;;1.10;99.90;;;;;;5034145;28;20441;-87
2023/12/09 04:47:00;;;;;;;0.30;0.30;;;1.10;99.90;;;;;;5025593;28;20190;-88
2023/12/09 04:49:25;;;;;;;0.33;0.33;;;1.10;99.90;;;;;;5009675;28;20871;-88
2023/12/09 04:51:51;;;;;;;0.30;0.30;;;1.10;99.90;;;;;;5027174;28;20556;-88
2023/12/09 04:54:16;;;;;;;0.33;0.33;;;1.10;99.90;;;;;;5025128;28;20677;-87
2023/12/09 04:56:43;;;;;;;0.40;0.40;;;1.10;99.90;;;;;;5020116;28;20230;-87
2023/12/09 04:59:08;;;;;;;0.40;0.40;;;1.10;99.90;;;;;;5027309;28;20180;-87
2023/12/09 05:01:37;;;;;;;0.50;0.50;;;1.10;99.90;;;;;;5029828;28;20445;-87
2023/12/09 05:04:03;;;;;;;0.40;0.40;;;1.10;99.90;;;;;;5018696;28;20219;-87
2023/12/09 05:06:29;;;;;;;0.40;0.40;;;1.20;99.90;;;;;;5026360;28;20538;-87
2023/12/09 05:08:54;;;;;;;0.40;0.40;;;1.20;99.90;;;;;;5024231;28;20214;-87
2023/12/09 05:11:20;;;;;;;0.40;0.40;;;1.20;99.90;;;;;;5029530;28;20607;-88
2023/12/09 05:13:45;;;;;;;0.30;0.30;;;1.20;99.90;;;;;;5007322;28;20338;-88
2023/12/09 05:16:11;;;;;;;0.40;0.40;;;1.20;99.90;;;;;;5021741;28;20198;-87
2023/12/09 05:18:40;;;;;;;0.40;0.40;;;1.20;99.90;;;;;;5026763;28;20699;-87
2023/12/09 05:21:06;;;;;;;0.40;0.40;;;1.20;99.90;;;;;;5024383;28;21774;-88
2023/12/09 05:23:32;;;;;;;0.30;0.30;;;1.20;99.90;;;;;;5009951;28;20445;-87
2023/12/09 05:25:58;;;;;;;0.30;0.30;;;1.20;99.90;;;;;;5025892;28;20469;-87
2023/12/09 05:28:24;;;;;;;0.40;0.40;;;1.30;99.90;;;;;;5009871;28;20431;-88
2023/12/09 05:30:49;;;;;;;0.30;0.30;;;1.30;99.90;;;;;;5005586;28;20214;-86
2023/12/09 05:33:15;;;;;;;0.30;0.30;;;1.40;99.90;;;;;;5024375;28;20529;-86
2023/12/09 05:35:40;;;;;;;0.40;0.40;;;1.40;99.90;;;;;;5029552;28;20530;-87
2023/12/09 05:38:06;;;;;;;0.30;0.30;;;1.40;99.90;;;;;;5012722;28;20167;-88
2023/12/09 05:40:31;;;;;;;0.30;0.30;;;1.40;99.90;;;;;;5025363;28;20306;-88
2023/12/09 05:42:57;;;;;;;0.40;0.40;;;1.40;99.90;;;;;;5014136;28;20202;-88
2023/12/09 05:45:24;;;;;;;0.40;0.40;;;1.40;99.90;;;;;;5008930;28;20206;-88
2023/12/09 05:47:49;;;;;;;0.33;0.33;;;1.50;99.90;;;;;;5028770;28;20195;-86
2023/12/09 05:50:18;;;;;;;0.30;0.30;;;1.40;99.90;;;;;;5000577;28;20478;-88
2023/12/09 05:52:43;;;;;;;0.40;0.40;;;1.50;99.90;;;;;;5003846;28;20187;-89
2023/12/09 05:55:09;;;;;;;0.37;0.37;;;1.50;99.90;;;;;;5027122;28;20445;-89
2023/12/09 05:57:34;;;;;;;0.30;0.30;;;1.50;99.90;;;;;;5005851;28;20275;-89
2023/12/09 06:00:00;;;;;;;0.20;0.20;;;1.50;99.90;;;;;;5002267;28;20554;-88
2023/12/09 06:02:25;;;;;;;0.30;0.30;;;1.60;99.90;;;;;;5005391;28;20190;-88
2023/12/09 06:04:51;;;;;;;0.30;0.30;;;1.50;99.90;;;;;;5004059;28;20177;-88
2023/12/09 06:07:17;;;;;;;0.40;0.40;;;1.50;99.90;;;;;;5026378;28;20184;-88
2023/12/09 06:09:42;;;;;;;0.40;0.40;;;1.50;99.90;;;;;;5028204;28;20218;-88
2023/12/09 06:12:08;;;;;;;0.40;0.40;;;1.60;99.90;;;;;;5026543;28;20172;-88
2023/12/09 06:14:33;;;;;;;0.40;0.40;;;1.60;99.90;;;;;;5013838;28;20670;-88
2023/12/09 06:16:59;;;;;;;0.40;0.40;;;1.60;99.90;;;;;;5019777;28;20189;-88
2023/12/09 06:19:24;;;;;;;0.40;0.40;;;1.60;99.90;;;;;;5031545;28;20353;-88
2023/12/09 06:21:50;;;;;;;0.30;0.30;;;1.70;99.90;;;;;;5021982;28;20642;-88
2023/12/09 06:24:16;;;;;;;0.40;0.40;;;1.70;99.90;;;;;;5026771;28;20228;-88
2023/12/09 06:26:44;;;;;;;0.20;0.20;;;1.70;99.90;;;;;;5028674;28;20446;-88
2023/12/09 06:29:12;;;;;;;0.30;0.30;;;1.70;99.90;;;;;;5028639;28;20212;-88
2023/12/09 06:31:38;;;;;;;0.30;0.30;;;1.70;99.90;;;;;;5010047;28;20448;-88
2023/12/09 06:34:03;;;;;;;0.40;0.40;;;1.70;99.90;;;;;;5025397;28;20830;-87
2023/12/09 06:36:28;;;;;;;0.30;0.30;;;1.80;99.90;;;;;;5041463;28;20165;-88
2023/12/09 06:38:54;;;;;;;0.30;0.30;;;1.80;99.90;;;;;;5049274;28;20655;-87
2023/12/09 06:41:19;;;;;;;0.40;0.40;;;1.80;99.90;;;;;;5048971;28;20225;-87
2023/12/09 06:43:45;;;;;;;0.30;0.30;;;1.90;99.90;;;;;;5003043;28;20550;-88
2023/12/09 06:46:10;;;;;;;0.40;0.40;;;1.90;99.90;;;;;;5005007;28;20262;-87
2023/12/09 06:48:38;;;;;;;0.20;0.20;;;1.90;99.90;;;;;;5009708;28;20218;-86
2023/12/09 06:51:04;;;;;;;0.30;0.30;;;1.90;99.90;;;;;;5022806;28;20195;-87
2023/12/09 06:53:29;;;;;;;0.40;0.40;;;1.90;99.90;;;;;;5028355;28;20509;-87
2023/12/09 06:55:55;;;;;;;0.30;0.30;;;1.90;99.90;;;;;;5027649;28;20433;-88
2023/12/09 06:58:20;;;;;;;0.40;0.40;;;1.90;99.90;;;;;;5027085;28;20183;-87
2023/12/09 07:00:46;;;;;;;0.30;0.30;;;1.90;99.90;;;;;;5030208;28;20691;-87
2023/12/09 07:03:12;;;;;;;0.40;0.40;;;2.00;99.90;;;;;;5019930;28;20186;-87
2023/12/09 07:05:37;;;;;;;0.40;0.40;;;2.00;99.90;;;;;;5031987;28;20866;-87
2023/12/09 07:08:03;;;;;;;0.30;0.30;;;2.00;99.90;;;;;;5021587;28;20181;-87
2023/12/09 07:10:29;;;;;;;0.30;0.30;;;2.00;99.90;;;;;;5022565;28;20275;-87
2023/12/09 07:12:54;;;;;;;0.40;0.40;;;2.00;99.90;;;;;;5015025;28;20420;-87
2023/12/09 07:15:20;;;;;;;0.30;0.30;;;2.00;99.90;;;;;;5041444;28;20198;-86
2023/12/09 07:17:46;;;;;;;0.30;0.30;;;2.00;99.90;;;;;;5035274;28;20266;-86
2023/12/09 07:20:11;;;;;;;0.30;0.30;;;2.10;99.90;;;;;;5027324;28;20488;-87
2023/12/09 07:22:37;;;;;;;0.30;0.30;;;2.10;99.90;;;;;;5006792;28;20405;-87
2023/12/09 07:25:02;;;;;;;0.30;0.30;;;2.10;99.90;;;;;;5025845;28;20559;-87
2023/12/09 07:27:28;;;;;;;0.40;0.40;;;2.10;99.90;;;;;;5034055;28;20218;-88
2023/12/09 07:29:53;;;;;;;0.40;0.40;;;2.00;99.90;;;;;;5031668;28;20237;-86
2023/12/09 07:32:19;;;;;;;0.40;0.40;;;2.10;99.90;;;;;;5023507;28;20682;-87
2023/12/09 07:34:44;;;;;;;0.30;0.30;;;2.10;99.90;;;;;;5026531;28;20191;-86
2023/12/09 07:37:11;;;;;;;0.33;0.33;;;2.10;99.90;;;;;;5009635;28;20191;-87
2023/12/09 07:39:37;;;;;;;0.30;0.30;;;2.10;99.90;;;;;;5008378;28;20259;-86
2023/12/09 07:42:04;;;;;;;0.20;0.20;;;2.10;99.90;;;;;;5024279;28;20553;-86
2023/12/09 07:44:29;;;;;;;0.40;0.40;;;2.10;99.90;;;;;;5024011;28;20191;-89
2023/12/09 07:46:55;;;;;;;0.30;0.30;;;2.10;99.90;;;;;;5030440;28;20426;-89
2023/12/09 07:49:21;;;;;;;0.30;0.30;;;2.20;99.90;;;;;;5030174;28;20215;-88
2023/12/09 07:51:48;;;;;;;0.30;0.30;;;2.20;99.90;;;;;;5010632;28;20445;-88
2023/12/09 07:54:13;;;;;;;0.40;0.40;;;2.10;99.90;;;;;;5026789;28;20176;-89
2023/12/09 07:56:39;;;;;;;0.30;0.30;;;2.10;99.90;;;;;;5026503;28;20445;-89
2023/12/09 07:59:05;;;;;;;0.37;0.37;;;2.20;99.90;;;;;;5027920;28;20184;-88
2023/12/09 08:01:30;;;;;;;0.30;0.30;;;2.20;99.90;;;;;;5007134;28;20446;-89
2023/12/09 08:03:56;;;;;;;0.30;0.30;;;2.20;99.90;;;;;;5020035;28;20525;-89
2023/12/09 08:06:22;;;;;;;0.40;0.40;;;2.20;99.90;;;;;;5011310;28;20215;-87
2023/12/09 08:08:50;;;;;;;0.30;0.30;;;2.20;99.90;;;;;;5027605;28;20223;-88
2023/12/09 08:11:17;;;;;;;0.40;0.40;;;2.20;99.90;;;;;;5006916;28;20457;-88
2023/12/09 08:13:44;;;;;;;0.40;0.40;;;2.20;99.90;;;;;;5023702;28;20532;-88
2023/12/09 08:16:10;;;;;;;0.20;0.20;;;2.30;99.90;;;;;;5022160;28;20533;-88
2023/12/09 08:18:35;;;;;;;0.30;0.30;;;2.30;99.90;;;;;;5007252;28;20652;-88
2023/12/09 08:21:01;;;;;;;0.40;0.40;;;2.30;99.90;;;;;;5021451;28;20196;-88
2023/12/09 08:23:27;;;;;;;0.30;0.30;;;2.30;99.90;;;;;;5028231;28;20187;-87
2023/12/09 08:25:53;;;;;;;0.40;0.40;;;2.30;99.90;;;;;;5009367;28;20454;-88
2023/12/09 08:28:19;;;;;;;0.30;0.30;;;2.30;99.90;;;;;;5039939;28;20221;-84
2023/12/09 08:30:46;;;;;;;0.40;0.40;;;2.30;99.90;;;;;;5030093;28;20885;-86
2023/12/09 08:33:12;;;;;;;0.33;0.33;;;2.20;99.90;;;;;;5016353;28;20449;-87
2023/12/09 08:35:38;;;;;;;0.40;0.40;;;2.30;99.90;;;;;;5009694;28;20489;-87
2023/12/09 08:38:03;;;;;;;0.40;0.40;;;2.30;99.90;;;;;;5003424;28;20510;-87
2023/12/09 08:40:29;;;;;;;0.40;0.40;;;2.30;99.90;;;;;;5007542;28;20203;-88
2023/12/09 08:42:54;;;;;;;0.40;0.40;;;2.30;99.90;;;;;;5027496;28;20154;-87
2023/12/09 08:45:20;;;;;;;0.30;0.30;;;2.30;99.90;;;;;;5022771;28;20246;-86
2023/12/09 08:47:45;;;;;;;0.40;0.40;;;2.30;99.90;;;;;;5016911;28;20271;-85
2023/12/09 08:50:12;;;;;;;0.40;0.40;;;2.30;99.90;;;;;;5005729;28;20816;-80
2023/12/09 08:52:38;;;;;;;0.40;0.40;;;2.40;99.90;;;;;;5018561;28;20187;-82
2023/12/09 08:55:04;;;;;;;0.40;0.40;;;2.40;99.90;;;;;;5021255;28;20416;-82
2023/12/09 08:57:30;;;;;;;0.30;0.30;;;2.40;99.90;;;;;;5017814;28;20242;-84
2023/12/09 08:59:55;;;;;;;0.30;0.30;;;2.50;99.90;;;;;;4999974;28;20447;-81
2023/12/09 09:02:21;;;;;;;0.40;0.40;;;2.50;99.90;;;;;;5014840;28;21541;-80
2023/12/09 09:04:47;;;;;;;0.30;0.30;;;2.40;99.90;;;;;;5017733;28;20303;-80
2023/12/09 09:07:13;;;;;;;0.30;0.30;;;2.50;99.90;;;;;;5021287;28;20679;-80
2023/12/09 09:09:39;;;;;;;0.23;0.23;;;2.50;99.90;;;;;;5022278;28;20878;-79
2023/12/09 09:12:06;;;;;;;0.30;0.30;;;2.60;99.90;;;;;;5020157;28;20513;-84
2023/12/09 09:14:33;;;;;;;0.30;0.30;;;2.60;99.90;;;;;;5002614;28;20431;-82
2023/12/09 09:16:59;;;;;;;0.30;0.30;;;2.70;99.90;;;;;;5023316;28;20438;-82
2023/12/09 09:19:25;;;;;;;0.30;0.30;;;2.60;99.90;;;;;;5003656;28;20855;-82
2023/12/09 09:21:52;;;;;;;0.30;0.30;;;2.70;99.90;;;;;;5023447;28;20476;-83
2023/12/09 09:24:18;;;;;;;0.40;0.40;;;2.70;99.90;;;;;;5023175;28;20222;-84
2023/12/09 09:26:43;;;;;;;0.30;0.30;;;2.70;99.90;;;;;;5004072;28;20430;-84
2023/12/09 09:29:10;;;;;;;0.40;0.40;;;2.70;99.90;;;;;;4998563;28;20683;-80
2023/12/09 09:31:36;;;;;;;0.40;0.40;;;2.80;99.90;;;;;;5021490;28;20214;-78
2023/12/09 09:34:01;;;;;;;0.30;0.30;;;2.80;99.90;;;;;;5005606;28;21049;-90
2023/12/09 09:36:27;;;;;;;0.40;0.40;;;2.90;99.90;;;;;;5025294;28;20184;-90
2023/12/09 09:38:52;;;;;;;0.30;0.30;;;2.90;99.90;;;;;;5000677;28;20235;-89
2023/12/09 09:41:42;;;;;;;0.30;0.30;;;2.90;99.90;;;;;;5011360;28;20551;-92
2023/12/09 09:44:13;;;;;;;0.30;0.30;;;2.90;99.90;;;;;;5013052;28;20537;-93
2023/12/09 09:46:39;;;;;;;0.30;0.30;;;3.00;99.90;;;;;;5021544;28;20439;-90
2023/12/09 09:49:05;;;;;;;0.30;0.30;;;3.00;99.90;;;;;;5007316;28;20466;-91
2023/12/09 09:51:32;;;;;;;0.30;0.30;;;3.00;99.90;;;;;;5025926;28;20179;-88
2023/12/09 09:54:26;;;;;;;0.30;0.30;;;3.00;99.90;;;;;;5023539;28;20794;-88
2023/12/09 09:56:52;;;;;;;0.30;0.30;;;3.00;99.90;;;;;;5031464;28;20422;-86
2023/12/09 09:59:18;;;;;;;0.30;0.30;;;3.10;99.90;;;;;;5004411;28;20429;-88
2023/12/09 10:01:44;;;;;;;0.40;0.40;;;3.00;99.90;;;;;;5010822;28;20455;-88
2023/12/09 10:04:11;;;;;;;0.30;0.30;;;3.10;99.90;;;;;;5022098;28;21224;-81
2023/12/09 10:06:36;;;;;;;0.40;0.40;;;3.10;99.90;;;;;;5021114;28;20447;-80
2023/12/09 10:09:03;;;;;;;0.30;0.30;;;3.10;99.90;;;;;;5018153;28;20466;-81
2023/12/09 10:11:29;;;;;;;0.30;0.30;;;3.20;99.90;;;;;;5021758;28;20270;-84
2023/12/09 10:13:55;;;;;;;0.40;0.40;;;3.10;99.90;;;;;;5006159;28;20400;-83
2023/12/09 10:16:21;;;;;;;0.40;0.40;;;3.10;99.90;;;;;;5005565;28;20450;-83
2023/12/09 10:18:47;;;;;;;0.30;0.30;;;3.10;99.90;;;;;;5029396;28;20234;-84
2023/12/09 10:21:13;;;;;;;0.30;0.30;;;3.10;99.90;;;;;;5008081;28;20195;-83
2023/12/09 10:23:40;;;;;;;0.23;0.23;;;3.10;99.90;;;;;;5019170;28;20416;-83
2023/12/09 10:26:07;;;;;;;0.30;0.30;;;3.10;99.90;;;;;;4996177;28;20427;-84
2023/12/09 10:28:33;;;;;;;0.30;0.30;;;3.20;99.90;;;;;;5020847;28;20950;-83
2023/12/09 10:31:01;;;;;;;0.30;0.30;;;3.20;99.90;;;;;;5023434;28;20516;-83
2023/12/09 10:33:30;;;;;;;0.30;0.30;;;3.20;99.90;;;;;;5031276;28;20423;-83
2023/12/09 10:35:56;;;;;;;0.40;0.40;;;3.20;99.90;;;;;;5013238;28;20426;-83
2023/12/09 10:38:22;;;;;;;0.30;0.30;;;3.10;99.90;;;;;;5018499;28;20416;-83
2023/12/09 10:40:49;;;;;;;0.40;0.40;;;3.20;99.90;;;;;;5020276;28;20922;-84
2023/12/09 10:43:15;;;;;;;0.40;0.40;;;3.20;99.90;;;;;;5028648;28;20179;-83
2023/12/09 10:45:41;;;;;;;0.40;0.40;;;3.20;99.90;;;;;;5040412;28;20426;-83
2023/12/09 10:48:07;;;;;;;0.30;0.30;;;3.30;99.90;;;;;;5029355;28;20538;-83
2023/12/09 10:50:33;;;;;;;0.30;0.30;;;3.20;99.90;;;;;;5023340;28;20380;-83
2023/12/09 10:52:59;;;;;;;0.30;0.30;;;3.20;99.90;;;;;;5019138;28;20193;-83
2023/12/09 10:55:25;;;;;;;0.30;0.30;;;3.30;99.90;;;;;;5002121;28;20381;-82
2023/12/09 10:57:51;;;;;;;0.30;0.30;;;3.30;99.90;;;;;;5013757;28;20215;-83
2023/12/09 11:00:18;;;;;;;0.30;0.30;;;3.30;99.90;;;;;;5024594;28;20438;-84
2023/12/09 11:02:45;;;;;;;0.30;0.30;;;3.30;99.90;;;;;;5008162;28;20464;-83
2023/12/09 11:05:11;;;;;;;0.30;0.30;;;3.30;99.90;;;;;;5021010;28;20441;-83
2023/12/09 11:07:38;;;;;;;0.20;0.20;;;3.30;99.90;;;;;;5012158;28;20438;-84
2023/12/09 11:10:06;;;;;;;0.30;0.30;;;3.30;99.90;;;;;;5008393;28;20490;-84
2023/12/09 11:12:33;;;;;;;0.30;0.30;;;3.30;99.90;;;;;;5013634;28;20458;-83
2023/12/09 11:15:13;;;;;;;0.30;0.30;;;3.30;99.90;;;;;;5026101;28;20442;-84
2023/12/09 11:17:40;;;;;;;0.33;0.33;;;3.30;99.90;;;;;;5030720;28;20446;-84
2023/12/09 11:20:09;;;;;;;;;;;3.30;99.90;;;;;;5029110;28;20299;-84
2023/12/09 11:22:43;;;;;;;0.30;0.30;;;3.30;99.90;;;;;;5007720;28;20149;-82
2023/12/09 11:25:21;;;;;;;0.30;0.30;;;3.30;99.90;;;;;;5029934;28;20414;-82
2023/12/09 11:27:51;;;;;;;0.30;0.30;;;3.40;99.90;;;;;;5017189;28;20990;-83
2023/12/09 11:30:30;;;;;;;0.30;0.30;;;3.30;99.90;;;;;;5001668;28;20540;-83
2023/12/09 11:32:56;;;;;;;0.30;0.30;;;3.30;99.90;;;;;;5002310;28;20457;-84
2023/12/09 11:35:22;;;;;;;0.30;0.30;;;3.30;99.90;;;;;;5008835;28;20446;-84
2023/12/09 11:37:50;;;;;;;0.30;0.30;;;3.30;99.90;;;;;;5025694;28;21183;-83
2023/12/09 11:40:15;;;;;;;0.30;0.30;;;3.30;99.90;;;;;;5027500;28;20504;-83
2023/12/09 11:42:41;;;;;;;0.30;0.30;;;3.30;99.90;;;;;;5026496;28;20425;-83
2023/12/09 11:45:08;;;;;;;0.30;0.30;;;3.30;99.90;;;;;;5027612;28;20283;-84
2023/12/09 11:47:36;;;;;;;0.30;0.30;;;3.40;99.90;;;;;;5032520;28;20445;-83
2023/12/09 11:50:02;;;;;;;0.30;0.30;;;3.40;99.90;;;;;;5032187;28;20495;-80
2023/12/09 11:52:29;;;;;;;0.30;0.30;;;3.40;99.90;;;;;;5025020;28;20437;-82
2023/12/09 11:55:04;;;;;;;0.40;0.40;;;3.50;99.90;;;;;;5012893;28;20450;-82
2023/12/09 11:57:31;;;;;;;0.30;0.30;;;3.50;99.90;;;;;;5020995;28;20434;-82
2023/12/09 11:59:57;;;;;;;0.30;0.30;;;3.50;99.90;;;;;;5018416;28;20555;-82
2023/12/09 12:02:22;;;;;;;0.30;0.30;;;3.60;99.90;;;;;;5019761;28;20533;-81
2023/12/09 12:04:48;;;;;;;0.40;0.40;;;3.60;99.90;;;;;;5000524;28;20266;-81
2023/12/09 12:07:14;;;;;;;0.30;0.30;;;3.70;99.90;;;;;;5013603;28;20251;-83
2023/12/09 12:09:39;;;;;;;0.30;0.30;;;3.70;99.90;;;;;;5003367;28;20489;-82
2023/12/09 12:12:06;;;;;;;0.30;0.30;;;3.70;99.90;;;;;;4998845;28;20192;-82
2023/12/09 12:14:35;;;;;;;0.40;0.40;;;3.80;99.90;;;;;;5016665;28;20198;-82
2023/12/09 12:17:01;;;;;;;0.20;0.20;;;3.80;99.90;;;;;;5019198;28;20441;-82
2023/12/09 12:19:28;;;;;;;0.37;0.37;;;3.90;99.90;;;;;;5002175;28;20520;-82
2023/12/09 12:21:54;;;;;;;0.30;0.30;;;3.90;99.90;;;;;;5017740;28;20192;-83
2023/12/09 12:24:19;;;;;;;0.20;0.20;;;4.20;99.90;;;;;;5012354;28;21297;-82
2023/12/09 12:26:46;;;;;;;0.30;0.30;;;4.20;99.90;;;;;;4992196;28;20997;-82
2023/12/09 12:29:18;;;;;;;0.30;0.30;;;4.10;99.90;;;;;;5004194;28;20219;-83
2023/12/09 12:31:43;;;;;;;0.30;0.30;;;4.00;99.90;;;;;;5017120;28;20528;-83
2023/12/09 12:34:19;;;;;;;0.30;0.30;;;4.00;99.90;;;;;;5000631;28;20856;-82
2023/12/09 12:36:46;;;;;;;0.30;0.30;;;3.90;99.90;;;;;;5017443;28;20750;-82
2023/12/09 12:39:12;;;;;;;0.30;0.30;;;3.80;99.90;;;;;;5011706;28;21048;-83
2023/12/09 12:41:41;;;;;;;0.30;0.30;;;3.80;99.90;;;;;;5004733;28;20442;-82
2023/12/09 12:44:07;;;;;;;0.40;0.40;;;3.70;99.90;;;;;;5020891;28;20434;-82
2023/12/09 12:46:33;;;;;;;0.30;0.30;;;3.70;99.90;;;;;;4997659;28;20535;-82
2023/12/09 12:48:59;;;;;;;0.40;0.40;;;3.60;99.90;;;;;;5000962;28;20442;-83
2023/12/09 12:51:25;;;;;;;0.30;0.30;;;3.60;99.90;;;;;;5017391;28;20485;-82
2023/12/09 12:53:51;;;;;;;0.40;0.40;;;3.60;99.90;;;;;;5024753;28;20957;-82
2023/12/09 12:56:17;;;;;;;0.30;0.30;;;3.60;99.90;;;;;;5020726;28;20537;-82